sensor_id;sensor_type;location;lat;lon;timestamp;pressure;altitude;pressure_sealevel;temperature;humidity
56270;BME280;42176;43.240;27.880;2023-02-11T00:01:28;102136.13;;;-5.76;86.38
56270;BME280;42176;43.240;27.880;2023-02-11T00:03:54;102123.97;;;-5.77;85.58
56270;BME280;42176;43.240;27.880;2023-02-11T00:06:20;102127.69;;;-4.92;82.27
56270;BME280;42176;43.240;27.880;2023-02-11T00:08:46;102126.09;;;-5.26;78.02
56270;BME280;42176;43.240;27.880;2023-02-11T00:11:14;102118.88;;;-6.00;80.22
56270;BME280;42176;43.240;27.880;2023-02-11T00:13:40;102138.94;;;-6.07;82.71
56270;BME280;42176;43.240;27.880;2023-02-11T00:16:08;102138.59;;;-5.78;82.87
56270;BME280;42176;43.240;27.880;2023-02-11T00:18:33;102118.81;;;-5.08;78.62
56270;BME280;42176;43.240;27.880;2023-02-11T00:21:14;102132.47;;;-5.90;79.74
56270;BME280;42176;43.240;27.880;2023-02-11T00:23:40;102128.78;;;-6.61;81.89
56270;BME280;42176;43.240;27.880;2023-02-11T00:26:17;102124.13;;;-6.10;83.09
56270;BME280;42176;43.240;27.880;2023-02-11T00:28:43;102117.41;;;-6.08;82.88
56270;BME280;42176;43.240;27.880;2023-02-11T00:31:08;102108.22;;;-5.92;81.77
56270;BME280;42176;43.240;27.880;2023-02-11T00:33:34;102112.94;;;-4.69;77.24
56270;BME280;42176;43.240;27.880;2023-02-11T00:36:09;102120.91;;;-5.38;79.27
56270;BME280;42176;43.240;27.880;2023-02-11T00:38:35;102118.97;;;-6.10;83.63
56270;BME280;42176;43.240;27.880;2023-02-11T00:41:01;102112.56;;;-5.57;84.96
56270;BME280;42176;43.240;27.880;2023-02-11T00:43:26;102113.94;;;-5.39;84.60
56270;BME280;42176;43.240;27.880;2023-02-11T00:45:52;102110.53;;;-4.66;79.99
56270;BME280;42176;43.240;27.880;2023-02-11T00:48:17;102120.88;;;-5.61;81.42
56270;BME280;42176;43.240;27.880;2023-02-11T00:50:42;102112.97;;;-6.76;84.27
56270;BME280;42176;43.240;27.880;2023-02-11T00:53:09;102119.94;;;-6.42;86.83
56270;BME280;42176;43.240;27.880;2023-02-11T00:55:34;102112.00;;;-6.11;86.14
56270;BME280;42176;43.240;27.880;2023-02-11T00:58:00;102102.47;;;-5.54;81.92
56270;BME280;42176;43.240;27.880;2023-02-11T01:02:59;102109.91;;;-7.25;89.14
56270;BME280;42176;43.240;27.880;2023-02-11T01:05:25;102112.34;;;-6.73;90.93
56270;BME280;42176;43.240;27.880;2023-02-11T01:07:50;102103.69;;;-6.51;90.73
56270;BME280;42176;43.240;27.880;2023-02-11T01:10:16;102097.88;;;-5.92;84.50
56270;BME280;42176;43.240;27.880;2023-02-11T01:12:41;102096.66;;;-6.86;87.47
56270;BME280;42176;43.240;27.880;2023-02-11T01:15:08;102108.31;;;-7.55;92.48
56270;BME280;42176;43.240;27.880;2023-02-11T01:17:34;102107.00;;;-6.97;95.06
56270;BME280;42176;43.240;27.880;2023-02-11T01:20:07;102092.59;;;-6.73;94.80
56270;BME280;42176;43.240;27.880;2023-02-11T01:22:35;102080.41;;;-6.19;88.15
56270;BME280;42176;43.240;27.880;2023-02-11T01:25:04;102084.81;;;-6.95;89.77
56270;BME280;42176;43.240;27.880;2023-02-11T01:27:30;102088.22;;;-7.90;94.02
56270;BME280;42176;43.240;27.880;2023-02-11T01:29:56;102081.59;;;-7.45;96.34
56270;BME280;42176;43.240;27.880;2023-02-11T01:32:21;102081.84;;;-7.32;96.56
56270;BME280;42176;43.240;27.880;2023-02-11T01:34:47;102076.47;;;-6.25;92.51
56270;BME280;42176;43.240;27.880;2023-02-11T01:37:12;102074.25;;;-6.98;92.06
56270;BME280;42176;43.240;27.880;2023-02-11T01:39:38;102086.91;;;-7.85;95.01
56270;BME280;42176;43.240;27.880;2023-02-11T01:42:04;102077.13;;;-7.79;100.00
56270;BME280;42176;43.240;27.880;2023-02-11T01:44:33;102084.72;;;-7.60;100.00
56270;BME280;42176;43.240;27.880;2023-02-11T01:46:59;102081.31;;;-7.28;100.00
56270;BME280;42176;43.240;27.880;2023-02-11T01:49:31;102083.19;;;-6.28;93.55
56270;BME280;42176;43.240;27.880;2023-02-11T01:52:00;102077.03;;;-6.84;95.21
56270;BME280;42176;43.240;27.880;2023-02-11T01:54:35;102075.59;;;-7.98;98.69
56270;BME280;42176;43.240;27.880;2023-02-11T01:57:23;102079.53;;;-7.39;100.00
56270;BME280;42176;43.240;27.880;2023-02-11T02:02:45;102079.72;;;-7.15;95.36
56270;BME280;42176;43.240;27.880;2023-02-11T02:08:20;102079.41;;;-7.41;100.00
56270;BME280;42176;43.240;27.880;2023-02-11T02:10:49;102076.22;;;-6.73;100.00
56270;BME280;42176;43.240;27.880;2023-02-11T02:13:18;102072.28;;;-6.90;94.24
56270;BME280;42176;43.240;27.880;2023-02-11T02:15:49;102081.09;;;-7.62;95.44
56270;BME280;42176;43.240;27.880;2023-02-11T02:32:21;102096.81;;;-7.59;99.82
56270;BME280;42176;43.240;27.880;2023-02-11T02:40:04;102090.00;;;-7.58;93.91
56270;BME280;42176;43.240;27.880;2023-02-11T02:42:32;102072.00;;;-7.89;97.55
56270;BME280;42176;43.240;27.880;2023-02-11T02:44:58;102101.72;;;-7.52;98.03
56270;BME280;42176;43.240;27.880;2023-02-11T02:47:23;102093.16;;;-7.20;97.77
56270;BME280;42176;43.240;27.880;2023-02-11T02:49:48;102083.00;;;-6.96;90.45
56270;BME280;42176;43.240;27.880;2023-02-11T02:52:28;102094.75;;;-8.04;93.29
56270;BME280;42176;43.240;27.880;2023-02-11T03:00:35;102095.03;;;-7.81;100.00
56270;BME280;42176;43.240;27.880;2023-02-11T03:03:34;102087.22;;;-6.86;96.07
56270;BME280;42176;43.240;27.880;2023-02-11T03:06:21;102094.78;;;-7.63;92.23
56270;BME280;42176;43.240;27.880;2023-02-11T03:09:02;102079.56;;;-7.07;97.56
56270;BME280;42176;43.240;27.880;2023-02-11T03:11:30;102082.84;;;-6.54;93.88
56270;BME280;42176;43.240;27.880;2023-02-11T03:13:59;102080.28;;;-6.20;80.36
56270;BME280;42176;43.240;27.880;2023-02-11T03:16:28;102090.66;;;-7.92;91.91
56270;BME280;42176;43.240;27.880;2023-02-11T03:19:21;102084.41;;;-7.22;94.99
56270;BME280;42176;43.240;27.880;2023-02-11T03:21:49;102082.53;;;-7.02;88.36
56270;BME280;42176;43.240;27.880;2023-02-11T03:24:36;102090.28;;;-8.07;90.28
56270;BME280;42176;43.240;27.880;2023-02-11T03:27:20;102089.44;;;-8.87;97.23
56270;BME280;42176;43.240;27.880;2023-02-11T03:32:35;102080.09;;;-7.74;100.00
56270;BME280;42176;43.240;27.880;2023-02-11T03:35:10;102086.25;;;-7.62;92.95
56270;BME280;42176;43.240;27.880;2023-02-11T03:37:51;102089.31;;;-8.49;94.71
56270;BME280;42176;43.240;27.880;2023-02-11T03:40:25;102082.31;;;-8.70;99.21
56270;BME280;42176;43.240;27.880;2023-02-11T03:42:57;102082.13;;;-8.22;99.33
56270;BME280;42176;43.240;27.880;2023-02-11T03:45:24;102088.84;;;-7.93;99.28
56270;BME280;42176;43.240;27.880;2023-02-11T03:48:15;102075.13;;;-7.20;88.80
56270;BME280;42176;43.240;27.880;2023-02-11T03:50:44;102085.50;;;-7.92;89.58
56270;BME280;42176;43.240;27.880;2023-02-11T03:53:12;102069.72;;;-8.78;95.21
56270;BME280;42176;43.240;27.880;2023-02-11T03:55:39;102077.38;;;-8.28;97.78
56270;BME280;42176;43.240;27.880;2023-02-11T03:58:07;102087.53;;;-8.08;97.86
56270;BME280;42176;43.240;27.880;2023-02-11T04:00:37;102059.78;;;-6.85;89.65
56270;BME280;42176;43.240;27.880;2023-02-11T04:03:04;102065.22;;;-7.36;88.46
56270;BME280;42176;43.240;27.880;2023-02-11T04:05:30;102075.22;;;-8.13;91.03
56270;BME280;42176;43.240;27.880;2023-02-11T04:07:56;102053.56;;;-7.63;92.70
56270;BME280;42176;43.240;27.880;2023-02-11T04:10:21;102071.03;;;-7.38;92.53
56270;BME280;42176;43.240;27.880;2023-02-11T04:12:47;102067.66;;;-6.62;85.25
56270;BME280;42176;43.240;27.880;2023-02-11T04:15:13;102065.88;;;-7.38;88.63
56270;BME280;42176;43.240;27.880;2023-02-11T04:17:38;102063.50;;;-8.19;92.11
56270;BME280;42176;43.240;27.880;2023-02-11T04:20:04;102046.09;;;-7.70;92.67
56270;BME280;42176;43.240;27.880;2023-02-11T04:22:30;102052.00;;;-7.61;92.15
56270;BME280;42176;43.240;27.880;2023-02-11T04:24:55;102060.75;;;-6.73;89.19
56270;BME280;42176;43.240;27.880;2023-02-11T04:27:21;102052.69;;;-7.31;86.43
56270;BME280;42176;43.240;27.880;2023-02-11T04:29:47;102043.53;;;-8.22;89.83
56270;BME280;42176;43.240;27.880;2023-02-11T04:32:12;102063.63;;;-8.18;95.24
56270;BME280;42176;43.240;27.880;2023-02-11T04:34:38;102059.00;;;-8.01;93.57
56270;BME280;42176;43.240;27.880;2023-02-11T04:37:03;102056.94;;;-7.85;94.37
56270;BME280;42176;43.240;27.880;2023-02-11T04:39:29;102050.72;;;-7.56;94.46
56270;BME280;42176;43.240;27.880;2023-02-11T04:41:54;102024.22;;;-7.00;87.42
56270;BME280;42176;43.240;27.880;2023-02-11T04:44:20;102039.22;;;-7.49;89.02
56270;BME280;42176;43.240;27.880;2023-02-11T04:46:45;102054.75;;;-8.21;92.73
56270;BME280;42176;43.240;27.880;2023-02-11T04:49:13;102045.84;;;-7.73;93.93
56270;BME280;42176;43.240;27.880;2023-02-11T04:51:38;102038.13;;;-7.63;93.57
56270;BME280;42176;43.240;27.880;2023-02-11T04:54:04;102033.84;;;-6.65;88.88
56270;BME280;42176;43.240;27.880;2023-02-11T04:56:29;102036.25;;;-7.43;87.97
56270;BME280;42176;43.240;27.880;2023-02-11T04:58:55;102045.84;;;-8.25;92.76
56270;BME280;42176;43.240;27.880;2023-02-11T05:01:20;102041.22;;;-8.19;96.02
56270;BME280;42176;43.240;27.880;2023-02-11T05:03:46;102050.88;;;-7.85;96.08
56270;BME280;42176;43.240;27.880;2023-02-11T05:06:11;102044.38;;;-7.06;94.05
56270;BME280;42176;43.240;27.880;2023-02-11T05:08:37;102042.59;;;-7.60;90.48
56270;BME280;42176;43.240;27.880;2023-02-11T05:11:03;102032.84;;;-8.58;92.99
56270;BME280;42176;43.240;27.880;2023-02-11T05:13:28;102048.28;;;-8.97;98.20
56270;BME280;42176;43.240;27.880;2023-02-11T05:15:54;102036.56;;;-8.64;100.00
56270;BME280;42176;43.240;27.880;2023-02-11T05:18:20;102047.09;;;-8.41;100.00
56270;BME280;42176;43.240;27.880;2023-02-11T05:23:14;102043.16;;;-8.27;94.15
56270;BME280;42176;43.240;27.880;2023-02-11T05:25:39;102041.03;;;-9.12;96.50
56270;BME280;42176;43.240;27.880;2023-02-11T05:28:05;102047.06;;;-8.82;100.00
56270;BME280;42176;43.240;27.880;2023-02-11T05:30:30;102049.44;;;-8.54;100.00
56270;BME280;42176;43.240;27.880;2023-02-11T05:32:56;102038.81;;;-7.33;94.17
56270;BME280;42176;43.240;27.880;2023-02-11T05:35:22;102048.69;;;-8.01;93.43
56270;BME280;42176;43.240;27.880;2023-02-11T05:37:48;102049.34;;;-8.95;96.11
56270;BME280;42176;43.240;27.880;2023-02-11T05:40:14;102044.69;;;-8.39;99.74
56270;BME280;42176;43.240;27.880;2023-02-11T05:42:39;102040.44;;;-7.76;98.84
56270;BME280;42176;43.240;27.880;2023-02-11T05:45:05;102042.25;;;-7.65;91.66
56270;BME280;42176;43.240;27.880;2023-02-11T05:47:31;102055.13;;;-8.27;92.53
56270;BME280;42176;43.240;27.880;2023-02-11T05:49:56;102043.25;;;-8.46;96.72
56270;BME280;42176;43.240;27.880;2023-02-11T05:52:22;102042.25;;;-6.45;94.94
56270;BME280;42176;43.240;27.880;2023-02-11T05:54:48;102049.19;;;-4.93;86.56
56270;BME280;42176;43.240;27.880;2023-02-11T05:57:13;102054.91;;;-3.97;74.11
56270;BME280;42176;43.240;27.880;2023-02-11T05:59:39;102044.41;;;-4.75;74.58
56270;BME280;42176;43.240;27.880;2023-02-11T06:02:06;102054.38;;;-5.05;77.62
56270;BME280;42176;43.240;27.880;2023-02-11T06:04:33;102045.13;;;-5.13;78.59
56270;BME280;42176;43.240;27.880;2023-02-11T06:06:58;102043.66;;;-3.18;75.17
56270;BME280;42176;43.240;27.880;2023-02-11T06:09:24;102031.38;;;-1.94;66.66
56270;BME280;42176;43.240;27.880;2023-02-11T06:11:49;102038.63;;;-0.82;58.65
56270;BME280;42176;43.240;27.880;2023-02-11T06:14:15;102028.69;;;0.10;53.94
56270;BME280;42176;43.240;27.880;2023-02-11T06:16:40;102025.56;;;1.26;50.86
56270;BME280;42176;43.240;27.880;2023-02-11T06:19:05;102032.25;;;2.39;47.69
56270;BME280;42176;43.240;27.880;2023-02-11T06:21:31;102034.72;;;3.45;46.43
56270;BME280;42176;43.240;27.880;2023-02-11T06:23:56;102025.00;;;4.68;43.98
56270;BME280;42176;43.240;27.880;2023-02-11T06:26:22;102015.59;;;5.63;40.24
56270;BME280;42176;43.240;27.880;2023-02-11T06:28:48;102020.06;;;6.65;40.73
56270;BME280;42176;43.240;27.880;2023-02-11T06:31:14;101985.97;;;7.11;38.74
56270;BME280;42176;43.240;27.880;2023-02-11T06:33:39;102012.78;;;8.22;35.61
56270;BME280;42176;43.240;27.880;2023-02-11T06:36:16;102012.38;;;9.05;35.73
56270;BME280;42176;43.240;27.880;2023-02-11T06:38:42;102011.28;;;9.56;32.11
56270;BME280;42176;43.240;27.880;2023-02-11T06:41:12;102006.59;;;10.09;31.59
56270;BME280;42176;43.240;27.880;2023-02-11T06:43:38;102003.56;;;10.64;30.26
56270;BME280;42176;43.240;27.880;2023-02-11T06:46:04;102007.56;;;10.22;29.34
56270;BME280;42176;43.240;27.880;2023-02-11T06:48:29;102011.59;;;9.84;29.65
56270;BME280;42176;43.240;27.880;2023-02-11T06:50:55;102012.22;;;10.40;29.43
56270;BME280;42176;43.240;27.880;2023-02-11T06:53:20;102017.69;;;10.65;28.79
56270;BME280;42176;43.240;27.880;2023-02-11T06:55:45;102017.66;;;10.56;28.62
56270;BME280;42176;43.240;27.880;2023-02-11T06:58:11;102016.38;;;11.32;28.41
56270;BME280;42176;43.240;27.880;2023-02-11T07:00:36;102014.66;;;11.47;27.99
56270;BME280;42176;43.240;27.880;2023-02-11T07:03:02;101997.13;;;11.95;28.24
56270;BME280;42176;43.240;27.880;2023-02-11T07:05:28;101996.28;;;12.06;27.71
56270;BME280;42176;43.240;27.880;2023-02-11T07:07:53;102001.63;;;12.32;26.40
56270;BME280;42176;43.240;27.880;2023-02-11T07:10:19;102002.50;;;12.57;26.01
56270;BME280;42176;43.240;27.880;2023-02-11T07:12:44;102006.88;;;12.99;25.78
56270;BME280;42176;43.240;27.880;2023-02-11T07:15:10;102000.72;;;12.72;25.58
56270;BME280;42176;43.240;27.880;2023-02-11T07:17:35;102002.47;;;12.88;26.43
56270;BME280;42176;43.240;27.880;2023-02-11T07:20:01;102000.56;;;13.43;26.00
56270;BME280;42176;43.240;27.880;2023-02-11T07:22:27;101995.16;;;13.59;25.66
56270;BME280;42176;43.240;27.880;2023-02-11T07:24:52;101992.34;;;13.90;24.37
56270;BME280;42176;43.240;27.880;2023-02-11T07:27:18;101993.91;;;14.23;24.43
56270;BME280;42176;43.240;27.880;2023-02-11T07:29:43;101990.44;;;14.10;23.76
56270;BME280;42176;43.240;27.880;2023-02-11T07:32:11;101995.28;;;14.72;24.27
56270;BME280;42176;43.240;27.880;2023-02-11T07:34:37;101987.81;;;15.07;23.16
56270;BME280;42176;43.240;27.880;2023-02-11T07:37:02;101991.59;;;15.62;22.75
56270;BME280;42176;43.240;27.880;2023-02-11T07:39:28;101980.69;;;15.78;22.26
56270;BME280;42176;43.240;27.880;2023-02-11T07:41:53;101977.97;;;15.11;23.17
56270;BME280;42176;43.240;27.880;2023-02-11T07:44:19;101978.50;;;14.58;23.55
56270;BME280;42176;43.240;27.880;2023-02-11T07:46:44;101967.19;;;15.20;23.58
56270;BME280;42176;43.240;27.880;2023-02-11T07:49:12;101977.97;;;15.11;23.30
56270;BME280;42176;43.240;27.880;2023-02-11T07:51:38;101971.44;;;15.35;23.02
56270;BME280;42176;43.240;27.880;2023-02-11T07:54:03;101964.31;;;15.34;22.95
56270;BME280;42176;43.240;27.880;2023-02-11T07:56:29;101961.56;;;15.42;23.14
56270;BME280;42176;43.240;27.880;2023-02-11T07:58:59;101956.09;;;15.51;22.95
56270;BME280;42176;43.240;27.880;2023-02-11T08:01:25;101961.63;;;14.53;24.25
56270;BME280;42176;43.240;27.880;2023-02-11T08:03:54;101962.06;;;15.01;23.55
56270;BME280;42176;43.240;27.880;2023-02-11T08:06:21;101924.41;;;15.21;23.17
56270;BME280;42176;43.240;27.880;2023-02-11T08:08:47;101956.22;;;15.42;22.98
56270;BME280;42176;43.240;27.880;2023-02-11T08:11:16;101949.97;;;15.44;22.59
56270;BME280;42176;43.240;27.880;2023-02-11T08:13:42;101954.56;;;15.31;22.82
56270;BME280;42176;43.240;27.880;2023-02-11T08:16:08;101953.19;;;15.70;23.09
56270;BME280;42176;43.240;27.880;2023-02-11T08:18:34;101938.09;;;15.65;23.00
56270;BME280;42176;43.240;27.880;2023-02-11T08:21:04;101946.19;;;15.61;23.10
56270;BME280;42176;43.240;27.880;2023-02-11T08:23:30;101948.84;;;15.59;22.78
56270;BME280;42176;43.240;27.880;2023-02-11T08:26:00;101945.00;;;15.79;22.62
56270;BME280;42176;43.240;27.880;2023-02-11T08:28:26;101947.59;;;15.88;22.37
56270;BME280;42176;43.240;27.880;2023-02-11T08:30:51;101944.16;;;15.10;23.01
56270;BME280;42176;43.240;27.880;2023-02-11T08:33:17;101932.91;;;13.72;24.09
56270;BME280;42176;43.240;27.880;2023-02-11T08:35:42;101941.75;;;13.83;24.16
56270;BME280;42176;43.240;27.880;2023-02-11T08:38:08;101934.56;;;13.92;23.72
56270;BME280;42176;43.240;27.880;2023-02-11T08:40:33;101922.34;;;13.57;23.81
56270;BME280;42176;43.240;27.880;2023-02-11T08:42:59;101948.47;;;6.85;31.92
56270;BME280;42176;43.240;27.880;2023-02-11T08:45:24;101947.13;;;3.90;38.54
56270;BME280;42176;43.240;27.880;2023-02-11T08:47:49;101942.63;;;4.39;38.88
56270;BME280;42176;43.240;27.880;2023-02-11T08:50:15;101942.38;;;6.13;36.11
56270;BME280;42176;43.240;27.880;2023-02-11T08:52:40;101934.59;;;5.20;37.18
56270;BME280;42176;43.240;27.880;2023-02-11T08:55:07;101918.91;;;2.85;43.36
56270;BME280;42176;43.240;27.880;2023-02-11T08:57:32;101924.47;;;2.49;45.19
56270;BME280;42176;43.240;27.880;2023-02-11T08:59:58;101906.41;;;2.78;44.99
56270;BME280;42176;43.240;27.880;2023-02-11T09:02:23;101930.66;;;2.28;46.92
56270;BME280;42176;43.240;27.880;2023-02-11T09:04:49;101923.41;;;1.00;49.85
56270;BME280;42176;43.240;27.880;2023-02-11T09:07:14;101917.63;;;1.27;50.13
56270;BME280;42176;43.240;27.880;2023-02-11T09:09:39;101915.38;;;1.76;48.77
56270;BME280;42176;43.240;27.880;2023-02-11T09:12:05;101898.84;;;1.77;49.01
56270;BME280;42176;43.240;27.880;2023-02-11T09:14:30;101915.06;;;0.89;49.49
56270;BME280;42176;43.240;27.880;2023-02-11T09:16:56;101901.03;;;0.87;48.59
56270;BME280;42176;43.240;27.880;2023-02-11T09:19:21;101910.56;;;1.44;48.66
56270;BME280;42176;43.240;27.880;2023-02-11T09:21:47;101890.13;;;1.55;48.43
56270;BME280;42176;43.240;27.880;2023-02-11T09:24:13;101896.63;;;1.24;49.93
56270;BME280;42176;43.240;27.880;2023-02-11T09:26:40;101885.53;;;1.30;48.60
56270;BME280;42176;43.240;27.880;2023-02-11T09:29:05;101891.31;;;1.63;47.04
56270;BME280;42176;43.240;27.880;2023-02-11T09:31:32;101898.63;;;1.92;45.07
56270;BME280;42176;43.240;27.880;2023-02-11T09:34:01;101885.84;;;2.21;44.01
56270;BME280;42176;43.240;27.880;2023-02-11T09:36:32;101870.88;;;1.33;45.70
56270;BME280;42176;43.240;27.880;2023-02-11T09:38:59;101872.91;;;1.81;44.85
56270;BME280;42176;43.240;27.880;2023-02-11T09:44:03;101867.78;;;2.50;43.03
56270;BME280;42176;43.240;27.880;2023-02-11T09:46:32;101865.94;;;2.70;42.60
56270;BME280;42176;43.240;27.880;2023-02-11T09:48:59;101854.38;;;2.87;41.65
56270;BME280;42176;43.240;27.880;2023-02-11T09:54:02;101853.59;;;3.14;41.71
56270;BME280;42176;43.240;27.880;2023-02-11T09:56:29;101841.66;;;3.23;41.71
56270;BME280;42176;43.240;27.880;2023-02-11T09:58:55;101851.53;;;2.58;43.83
56270;BME280;42176;43.240;27.880;2023-02-11T10:04:05;101845.63;;;2.19;45.94
56270;BME280;42176;43.240;27.880;2023-02-11T10:06:52;101834.88;;;2.79;43.51
56270;BME280;42176;43.240;27.880;2023-02-11T10:22:44;101806.00;;;1.87;46.22
56270;BME280;42176;43.240;27.880;2023-02-11T10:25:24;101795.88;;;2.17;46.23
56270;BME280;42176;43.240;27.880;2023-02-11T10:27:51;101799.84;;;2.53;45.38
56270;BME280;42176;43.240;27.880;2023-02-11T10:30:36;101791.38;;;2.84;45.25
56270;BME280;42176;43.240;27.880;2023-02-11T10:33:46;101796.94;;;2.00;46.33
56270;BME280;42176;43.240;27.880;2023-02-11T10:35:52;101792.97;;;1.88;46.67
56270;BME280;42176;43.240;27.880;2023-02-11T10:38:18;101782.06;;;2.21;45.68
56270;BME280;42176;43.240;27.880;2023-02-11T10:40:45;101783.03;;;2.95;45.59
56270;BME280;42176;43.240;27.880;2023-02-11T10:43:15;101781.09;;;2.42;46.33
56270;BME280;42176;43.240;27.880;2023-02-11T10:45:44;101773.00;;;2.58;45.94
56270;BME280;42176;43.240;27.880;2023-02-11T10:48:48;101781.03;;;2.87;45.50
56270;BME280;42176;43.240;27.880;2023-02-11T10:51:26;101766.06;;;3.09;45.29
56270;BME280;42176;43.240;27.880;2023-02-11T10:56:40;101756.53;;;3.37;43.58
56270;BME280;42176;43.240;27.880;2023-02-11T10:59:28;101752.56;;;3.23;44.92
56270;BME280;42176;43.240;27.880;2023-02-11T11:02:00;101758.38;;;2.18;47.46
56270;BME280;42176;43.240;27.880;2023-02-11T11:04:32;101748.75;;;2.40;47.73
56270;BME280;42176;43.240;27.880;2023-02-11T11:17:36;101732.09;;;2.38;48.21
56270;BME280;42176;43.240;27.880;2023-02-11T11:20:26;101734.97;;;2.94;47.59
56270;BME280;42176;43.240;27.880;2023-02-11T11:23:16;101730.19;;;2.34;48.97
56270;BME280;42176;43.240;27.880;2023-02-11T11:25:45;101715.81;;;2.71;47.14
56270;BME280;42176;43.240;27.880;2023-02-11T11:28:24;101711.13;;;2.86;46.37
56270;BME280;42176;43.240;27.880;2023-02-11T11:30:51;101714.06;;;3.22;45.85
56270;BME280;42176;43.240;27.880;2023-02-11T11:33:22;101711.59;;;2.50;47.20
56270;BME280;42176;43.240;27.880;2023-02-11T11:35:56;101709.16;;;2.79;47.64
56270;BME280;42176;43.240;27.880;2023-02-11T11:38:23;101697.84;;;3.06;47.53
56270;BME280;42176;43.240;27.880;2023-02-11T11:41:27;101693.28;;;3.28;45.01
56270;BME280;42176;43.240;27.880;2023-02-11T11:46:42;101683.16;;;2.85;47.89
56270;BME280;42176;43.240;27.880;2023-02-11T11:49:18;101679.28;;;3.00;47.96
56270;BME280;42176;43.240;27.880;2023-02-11T11:51:53;101678.22;;;3.20;45.90
56270;BME280;42176;43.240;27.880;2023-02-11T11:54:23;101674.97;;;3.02;45.41
56270;BME280;42176;43.240;27.880;2023-02-11T11:56:59;101666.16;;;2.48;47.60
56270;BME280;42176;43.240;27.880;2023-02-11T11:59:26;101670.91;;;2.84;47.42
56270;BME280;42176;43.240;27.880;2023-02-11T12:04:49;101660.13;;;2.75;45.01
56270;BME280;42176;43.240;27.880;2023-02-11T12:07:25;101647.97;;;3.04;46.45
56270;BME280;42176;43.240;27.880;2023-02-11T12:18:45;101643.44;;;2.47;49.16
56270;BME280;42176;43.240;27.880;2023-02-11T12:21:30;101642.31;;;2.91;47.85
56270;BME280;42176;43.240;27.880;2023-02-11T12:27:17;101627.63;;;3.50;45.25
56270;BME280;42176;43.240;27.880;2023-02-11T12:30:21;101618.56;;;3.70;45.23
56270;BME280;42176;43.240;27.880;2023-02-11T12:35:59;101619.28;;;2.80;48.83
56270;BME280;42176;43.240;27.880;2023-02-11T12:38:31;101626.53;;;3.16;45.95
56270;BME280;42176;43.240;27.880;2023-02-11T12:41:13;101619.72;;;3.49;44.98
56270;BME280;42176;43.240;27.880;2023-02-11T12:43:42;101611.13;;;3.26;46.28
56270;BME280;42176;43.240;27.880;2023-02-11T12:59:04;101602.44;;;3.27;42.70
56270;BME280;42176;43.240;27.880;2023-02-11T13:01:35;101600.91;;;2.54;44.18
56270;BME280;42176;43.240;27.880;2023-02-11T13:06:37;101570.19;;;3.02;44.08
56270;BME280;42176;43.240;27.880;2023-02-11T13:09:10;101585.31;;;3.38;44.46
56270;BME280;42176;43.240;27.880;2023-02-11T13:11:44;101591.28;;;3.63;43.26
56270;BME280;42176;43.240;27.880;2023-02-11T13:14:44;101591.97;;;3.01;44.24
56270;BME280;42176;43.240;27.880;2023-02-11T13:17:33;101579.75;;;3.29;42.72
56270;BME280;42176;43.240;27.880;2023-02-11T13:20:17;101566.66;;;3.58;41.75
56270;BME280;42176;43.240;27.880;2023-02-11T13:22:51;101569.69;;;3.43;41.18
56270;BME280;42176;43.240;27.880;2023-02-11T13:27:53;101561.03;;;3.45;41.45
56270;BME280;42176;43.240;27.880;2023-02-11T13:30:49;101565.16;;;3.66;40.82
56270;BME280;42176;43.240;27.880;2023-02-11T13:33:36;101553.25;;;2.91;41.41
56270;BME280;42176;43.240;27.880;2023-02-11T13:38:30;101566.19;;;3.71;40.76
56270;BME280;42176;43.240;27.880;2023-02-11T13:41:32;101570.56;;;3.14;41.67
56270;BME280;42176;43.240;27.880;2023-02-11T13:44:12;101569.47;;;3.35;41.06
56270;BME280;42176;43.240;27.880;2023-02-11T13:47:05;101566.84;;;3.64;39.11
56270;BME280;42176;43.240;27.880;2023-02-11T13:49:34;101562.75;;;3.74;38.88
56270;BME280;42176;43.240;27.880;2023-02-11T13:52:02;101557.72;;;3.81;39.63
56270;BME280;42176;43.240;27.880;2023-02-11T13:54:34;101528.97;;;3.85;40.21
56270;BME280;42176;43.240;27.880;2023-02-11T13:59:48;101550.78;;;4.16;40.87
56270;BME280;42176;43.240;27.880;2023-02-11T14:02:30;101550.63;;;2.91;43.68
56270;BME280;42176;43.240;27.880;2023-02-11T14:05:27;101534.91;;;2.63;45.28
56270;BME280;42176;43.240;27.880;2023-02-11T14:08:14;101542.41;;;3.07;44.78
56270;BME280;42176;43.240;27.880;2023-02-11T14:11:03;101546.06;;;3.41;44.04
56270;BME280;42176;43.240;27.880;2023-02-11T14:16:15;101532.34;;;3.80;42.26
56270;BME280;42176;43.240;27.880;2023-02-11T14:23:36;101530.31;;;2.83;45.15
56270;BME280;42176;43.240;27.880;2023-02-11T14:28:53;101531.41;;;2.63;45.90
56270;BME280;42176;43.240;27.880;2023-02-11T14:31:41;101531.84;;;3.04;45.95
56270;BME280;42176;43.240;27.880;2023-02-11T14:42:38;101515.03;;;2.70;45.91
56270;BME280;42176;43.240;27.880;2023-02-11T14:45:07;101511.44;;;3.23;43.45
56270;BME280;42176;43.240;27.880;2023-02-11T14:50:52;101498.81;;;2.54;45.79
56270;BME280;42176;43.240;27.880;2023-02-11T14:53:24;101512.88;;;2.84;45.03
56270;BME280;42176;43.240;27.880;2023-02-11T14:55:54;101515.84;;;2.95;44.97
56270;BME280;42176;43.240;27.880;2023-02-11T14:58:27;101511.81;;;3.06;44.74
56270;BME280;42176;43.240;27.880;2023-02-11T15:01:00;101512.50;;;3.29;43.92
56270;BME280;42176;43.240;27.880;2023-02-11T15:03:27;101508.38;;;2.26;46.24
56270;BME280;42176;43.240;27.880;2023-02-11T15:05:55;101501.84;;;1.41;48.68
56270;BME280;42176;43.240;27.880;2023-02-11T15:08:26;101507.31;;;1.71;48.08
56270;BME280;42176;43.240;27.880;2023-02-11T15:10:53;101505.97;;;1.82;48.06
56270;BME280;42176;43.240;27.880;2023-02-11T15:13:22;101495.16;;;2.49;46.02
56270;BME280;42176;43.240;27.880;2023-02-11T15:15:57;101494.25;;;1.95;47.07